Time;durP1;ratioP1;P1;durP2;ratioP2;P2;SDS_P1;SDS_P2;PMS_P1;PMS_P2;Temp;Humidity;BMP_temperature;BMP_pressure;BME280_temperature;BME280_humidity;BME280_pressure;Samples;Min_cycle;Max_cycle;Signal;HPM_P1;HPM_P2
2022/05/24 00:00:35;;;;;;;42.97;22.80;;;27.50;99.90;;;;;;5034010;28;20272;-63
2022/05/24 00:03:02;;;;;;;50.80;25.98;;;27.50;99.90;;;;;;5030007;28;20544;-64
2022/05/24 00:05:32;;;;;;;35.05;23.10;;;27.60;99.90;;;;;;5029496;28;20033;-63
2022/05/24 00:07:59;;;;;;;39.58;24.10;;;27.60;99.90;;;;;;5033811;28;20026;-63
2022/05/24 00:10:29;;;;;;;37.75;25.20;;;27.70;99.90;;;;;;5033918;28;20034;-63
2022/05/24 00:12:56;;;;;;;59.92;31.67;;;27.70;99.90;;;;;;5029838;28;20026;-63
2022/05/24 00:15:29;;;;;;;53.22;30.38;;;27.70;99.90;;;;;;5034103;28;20076;-65
2022/05/24 00:18:18;;;;;;;47.83;28.42;;;27.70;99.90;;;;;;5033537;28;20494;-63
2022/05/24 00:20:51;;;;;;;46.00;27.45;;;27.80;99.90;;;;;;5022841;28;20042;-63
2022/05/24 00:23:20;;;;;;;46.22;26.85;;;27.70;99.90;;;;;;5035913;28;20051;-62
2022/05/24 00:25:52;;;;;;;31.73;24.10;;;27.70;99.90;;;;;;5035704;28;20049;-62
2022/05/24 00:28:21;;;;;;;37.78;24.83;;;27.70;99.90;;;;;;5034157;28;20075;-63
2022/05/24 00:30:49;;;;;;;44.55;25.77;;;27.80;99.90;;;;;;5031276;28;20034;-62
2022/05/24 00:33:16;;;;;;;41.53;24.50;;;27.80;99.90;;;;;;5027923;28;20034;-62
2022/05/24 00:35:44;;;;;;;35.05;24.23;;;27.80;99.90;;;;;;5020948;28;20112;-62
2022/05/24 00:38:19;;;;;;;34.03;23.48;;;27.90;99.90;;;;;;5035705;28;20033;-62
2022/05/24 00:40:46;;;;;;;36.00;23.73;;;27.90;99.90;;;;;;5034120;28;20029;-62
2022/05/24 00:43:48;;;;;;;35.20;22.85;;;27.90;99.90;;;;;;5035320;28;20095;-63
2022/05/24 00:46:25;;;;;;;;;;;27.90;99.90;;;;;;5031133;28;20067;-64
2022/05/24 00:49:04;;;;;;;30.77;22.58;;;27.90;99.90;;;;;;5036077;28;20282;-64
2022/05/24 00:51:37;;;;;;;34.97;25.85;;;27.90;99.90;;;;;;5034805;28;20033;-63
2022/05/24 00:54:03;;;;;;;34.40;24.15;;;27.90;99.90;;;;;;5036030;28;20036;-63
2022/05/24 00:56:51;;;;;;;37.72;23.77;;;27.90;99.90;;;;;;5035900;28;20032;-63
2022/05/24 00:59:34;;;;;;;39.58;25.33;;;27.90;99.90;;;;;;5034036;28;20068;-63
2022/05/24 01:02:01;;;;;;;36.67;26.48;;;27.90;99.90;;;;;;5034339;28;20026;-63
2022/05/24 01:04:28;;;;;;;45.78;29.05;;;27.90;99.90;;;;;;5033919;28;20030;-63
2022/05/24 01:06:55;;;;;;;42.13;26.23;;;28.00;99.90;;;;;;5035101;28;20017;-63
2022/05/24 01:09:23;;;;;;;38.88;25.88;;;28.00;99.90;;;;;;5035065;28;20072;-63
2022/05/24 01:11:53;;;;;;;34.03;24.35;;;28.00;99.90;;;;;;5035698;28;20478;-63
2022/05/24 01:14:23;;;;;;;38.45;24.55;;;28.10;99.90;;;;;;5035224;28;20120;-63
2022/05/24 01:16:51;;;;;;;35.05;25.70;;;28.20;99.90;;;;;;5032951;28;20029;-64
2022/05/24 01:19:31;;;;;;;31.48;23.33;;;28.20;99.90;;;;;;5035039;28;20050;-63
2022/05/24 01:22:08;;;;;;;33.13;24.17;;;28.20;99.90;;;;;;5035572;28;20029;-63
2022/05/24 01:24:44;;;;;;;34.35;24.80;;;28.30;99.90;;;;;;5035646;28;20083;-63
2022/05/24 01:27:11;;;;;;;32.90;24.05;;;28.40;99.90;;;;;;5035087;28;20509;-63
2022/05/24 01:29:40;;;;;;;37.33;22.60;;;28.40;99.90;;;;;;5034393;28;20037;-64
2022/05/24 01:37:41;;;;;;;39.28;26.00;;;28.50;99.90;;;;;;4993938;28;20034;-64
2022/05/24 01:40:08;;;;;;;46.65;28.02;;;28.60;99.90;;;;;;4992433;28;20462;-65
2022/05/24 01:42:35;;;;;;;49.30;30.00;;;28.60;99.90;;;;;;4985378;28;20043;-65
2022/05/24 01:45:04;;;;;;;47.40;31.55;;;28.70;99.90;;;;;;4990851;28;20455;-63
2022/05/24 01:47:33;;;;;;;47.65;30.98;;;28.70;99.90;;;;;;4991871;28;20034;-62
2022/05/24 01:50:04;;;;;;;50.80;32.63;;;28.70;99.90;;;;;;4989315;28;20034;-64
2022/05/24 01:52:40;;;;;;;47.60;32.88;;;28.80;99.90;;;;;;4993174;28;20061;-64
2022/05/24 01:55:11;;;;;;;51.38;33.53;;;28.80;99.90;;;;;;4991455;28;20550;-66
2022/05/24 01:57:53;;;;;;;46.55;31.30;;;28.80;99.90;;;;;;4993348;28;20077;-65
2022/05/24 02:00:20;;;;;;;46.45;28.52;;;28.90;99.90;;;;;;4991363;28;20081;-65
2022/05/24 02:02:49;;;;;;;32.33;23.17;;;29.00;99.90;;;;;;4989274;28;20048;-63
2022/05/24 02:05:30;;;;;;;38.47;23.42;;;29.00;99.90;;;;;;4982728;28;20031;-63
2022/05/24 02:07:57;;;;;;;28.77;21.20;;;29.00;99.90;;;;;;4983891;28;20517;-62
2022/05/24 02:10:25;;;;;;;37.70;22.83;;;29.10;99.90;;;;;;4992603;28;20398;-63
2022/05/24 02:12:58;;;;;;;40.20;28.33;;;29.20;99.90;;;;;;4992701;28;20395;-65
2022/05/24 02:15:29;;;;;;;38.72;26.10;;;29.30;99.90;;;;;;4991751;28;20041;-65
2022/05/24 02:18:11;;;;;;;40.63;29.10;;;29.40;99.90;;;;;;4987713;28;20041;-66
2022/05/24 02:20:42;;;;;;;59.28;32.03;;;29.40;99.90;;;;;;5003743;28;20095;-62
2022/05/24 02:23:11;;;;;;;55.63;29.13;;;29.40;99.90;;;;;;5033554;28;20025;-63
2022/05/24 02:25:44;;;;;;;40.17;28.27;;;29.40;99.90;;;;;;5033565;28;20037;-63
2022/05/24 02:28:13;;;;;;;46.90;29.45;;;29.50;99.90;;;;;;5033672;28;20013;-62
2022/05/24 02:30:45;;;;;;;56.30;33.33;;;29.50;99.90;;;;;;5032677;28;20466;-63
2022/05/24 02:33:12;;;;;;;44.05;26.40;;;29.60;99.90;;;;;;5033458;28;20021;-62
2022/05/24 02:35:38;;;;;;;43.83;25.83;;;29.60;99.90;;;;;;5034051;28;20044;-61
2022/05/24 02:38:06;;;;;;;44.38;28.75;;;29.70;99.90;;;;;;5033511;28;20024;-62
2022/05/24 02:43:19;;;;;;;37.38;26.60;;;29.90;99.90;;;;;;5014285;28;20375;-63
2022/05/24 02:45:46;;;;;;;37.15;24.00;;;30.00;99.90;;;;;;5014407;28;20026;-62
2022/05/24 02:48:13;;;;;;;31.85;24.02;;;30.00;99.90;;;;;;5019778;28;20410;-62
2022/05/24 02:50:40;;;;;;;36.03;22.95;;;30.00;99.90;;;;;;5032532;28;20026;-62
2022/05/24 02:53:06;;;;;;;42.05;26.02;;;30.00;99.90;;;;;;5035146;28;20020;-63
2022/05/24 02:55:34;;;;;;;37.22;24.33;;;30.10;99.90;;;;;;5053762;28;20025;-63
2022/05/24 02:58:01;;;;;;;40.00;29.80;;;30.20;99.90;;;;;;5053653;28;20028;-63
2022/05/24 03:00:28;;;;;;;55.63;35.58;;;30.30;99.90;;;;;;5048391;28;20034;-64
2022/05/24 03:02:56;;;;;;;47.15;33.92;;;30.30;99.90;;;;;;5032408;28;20504;-64
2022/05/24 03:05:24;;;;;;;46.40;30.38;;;30.30;99.90;;;;;;5032985;28;20029;-63
2022/05/24 03:10:38;;;;;;;45.95;31.50;;;30.40;99.90;;;;;;5032692;28;20029;-64
2022/05/24 03:15:52;;;;;;;62.83;46.03;;;30.70;99.90;;;;;;5032737;28;20065;-64
2022/05/24 03:18:21;;;;;;;64.93;41.45;;;30.70;99.90;;;;;;5032766;28;20033;-64
2022/05/24 03:20:48;;;;;;;62.00;39.40;;;30.60;99.90;;;;;;5032615;28;20039;-65
2022/05/24 03:23:16;;;;;;;90.28;54.83;;;30.70;99.90;;;;;;5030613;28;20047;-64
2022/05/24 03:25:43;;;;;;;90.10;53.72;;;30.80;99.90;;;;;;5031670;28;20041;-63
2022/05/24 03:28:10;;;;;;;89.07;52.05;;;30.80;99.90;;;;;;5031980;28;20041;-62
2022/05/24 03:30:41;;;;;;;76.95;45.53;;;30.80;99.90;;;;;;5031295;28;20188;-64
2022/05/24 03:33:07;;;;;;;65.30;40.83;;;30.80;99.90;;;;;;5033115;28;20452;-63
2022/05/24 03:35:34;;;;;;;66.38;41.22;;;30.90;99.90;;;;;;5032536;28;20386;-64
2022/05/24 03:38:01;;;;;;;64.72;42.40;;;31.00;99.90;;;;;;5032599;28;20389;-63
2022/05/24 03:40:28;;;;;;;56.97;35.50;;;31.00;99.90;;;;;;5032533;28;20028;-63
2022/05/24 03:42:54;;;;;;;62.92;36.38;;;31.00;99.90;;;;;;5033250;28;20029;-62
2022/05/24 03:45:22;;;;;;;52.72;35.47;;;30.90;99.90;;;;;;5033174;28;20033;-63
2022/05/24 03:47:49;;;;;;;53.47;37.33;;;30.90;99.90;;;;;;5032191;28;20486;-63
2022/05/24 03:50:18;;;;;;;59.00;37.25;;;31.00;99.90;;;;;;5032614;28;20064;-62
2022/05/24 03:52:45;;;;;;;56.72;36.97;;;31.00;99.90;;;;;;5031567;28;20030;-62
2022/05/24 03:55:12;;;;;;;74.07;54.80;;;31.20;99.90;;;;;;5032845;28;20030;-62
2022/05/24 04:00:26;;;;;;;74.85;66.07;;;31.40;99.90;;;;;;5032366;28;20379;-62
2022/05/24 04:02:53;;;;;;;96.53;75.10;;;31.50;99.90;;;;;;5030394;28;20033;-62
2022/05/24 04:05:20;;;;;;;64.35;52.03;;;31.50;99.90;;;;;;5031782;28;20033;-62
2022/05/24 04:07:47;;;;;;;55.60;45.17;;;31.60;99.90;;;;;;5032854;28;20025;-61
2022/05/24 04:10:15;;;;;;;127.30;98.05;;;31.50;99.90;;;;;;5032173;28;20032;-63
2022/05/24 04:12:42;;;;;;;87.88;64.57;;;31.40;99.90;;;;;;5032106;28;20053;-63
2022/05/24 04:15:09;;;;;;;98.55;71.32;;;31.40;99.90;;;;;;5031708;28;20116;-62
2022/05/24 04:17:36;;;;;;;56.85;41.45;;;31.40;99.90;;;;;;5032363;28;20038;-62
2022/05/24 04:20:04;;;;;;;117.25;94.40;;;31.40;99.90;;;;;;5032901;28;20033;-62
2022/05/24 04:22:31;;;;;;;32.38;24.23;;;31.50;99.90;;;;;;5032934;28;20025;-65
2022/05/24 04:24:57;;;;;;;32.83;24.23;;;31.40;99.90;;;;;;5032720;28;20064;-63
2022/05/24 04:27:24;;;;;;;41.83;35.72;;;31.40;99.90;;;;;;5032090;28;20063;-63
2022/05/24 04:29:53;;;;;;;57.22;43.03;;;31.50;99.90;;;;;;5027444;28;20025;-62
2022/05/24 04:32:21;;;;;;;58.65;45.78;;;31.70;99.90;;;;;;5032830;28;20045;-70
2022/05/24 04:34:47;;;;;;;91.88;65.32;;;31.80;99.90;;;;;;5031833;28;20068;-69
2022/05/24 04:37:14;;;;;;;57.00;39.20;;;31.90;99.90;;;;;;5034243;28;20449;-70
2022/05/24 04:39:41;;;;;;;48.25;33.75;;;31.80;99.90;;;;;;5035300;28;20462;-67
2022/05/24 04:42:19;;;;;;;33.70;26.88;;;31.90;99.90;;;;;;5037314;28;20084;-70
2022/05/24 04:44:52;;;;;;;29.27;22.52;;;31.90;99.90;;;;;;5032470;28;20121;-68
2022/05/24 04:47:20;;;;;;;26.92;19.70;;;32.00;99.90;;;;;;5046264;28;20356;-69
2022/05/24 04:49:53;;;;;;;20.55;17.70;;;32.10;99.90;;;;;;5046407;28;20075;-66
2022/05/24 04:52:23;;;;;;;26.98;19.10;;;32.20;99.90;;;;;;5042357;28;20029;-67
2022/05/24 04:54:51;;;;;;;20.35;14.68;;;32.20;99.90;;;;;;5042422;28;20017;-71
2022/05/24 04:57:19;;;;;;;19.48;13.68;;;32.10;99.90;;;;;;5045405;28;20108;-70
2022/05/24 04:59:46;;;;;;;16.70;11.68;;;32.00;99.90;;;;;;5035201;28;20364;-69
2022/05/24 05:02:14;;;;;;;14.57;11.02;;;32.00;99.90;;;;;;5042124;28;20024;-70
2022/05/24 05:04:41;;;;;;;13.02;10.10;;;32.00;99.90;;;;;;5034189;28;20026;-69
2022/05/24 05:07:08;;;;;;;11.15;9.63;;;32.10;99.90;;;;;;5022770;28;20083;-64
2022/05/24 05:09:35;;;;;;;14.63;10.07;;;32.20;99.90;;;;;;5052762;28;20025;-65
2022/05/24 05:12:05;;;;;;;12.50;9.95;;;32.20;99.90;;;;;;5035119;28;20048;-64
2022/05/24 05:14:32;;;;;;;15.75;10.52;;;32.20;99.90;;;;;;5035112;28;20025;-65
2022/05/24 05:16:59;;;;;;;19.05;11.50;;;32.20;99.90;;;;;;5034346;28;20387;-63
2022/05/24 05:19:27;;;;;;;16.00;11.43;;;32.30;99.90;;;;;;5035210;28;20112;-62
2022/05/24 05:21:55;;;;;;;20.88;13.63;;;32.30;99.90;;;;;;5038036;28;20486;-61
2022/05/24 05:24:22;;;;;;;43.92;30.55;;;32.40;99.90;;;;;;5035641;28;20544;-61
2022/05/24 05:26:49;;;;;;;42.70;34.45;;;32.50;99.90;;;;;;5034408;28;20382;-61
2022/05/24 05:29:16;;;;;;;32.53;25.75;;;32.50;99.90;;;;;;5035447;28;20474;-70
2022/05/24 05:31:42;;;;;;;45.85;34.40;;;32.50;99.90;;;;;;5035430;28;20044;-68
2022/05/24 05:34:09;;;;;;;27.52;23.50;;;32.40;99.90;;;;;;5035304;28;20541;-69
2022/05/24 05:36:35;;;;;;;30.50;20.67;;;32.40;99.90;;;;;;5034657;28;20390;-66
2022/05/24 05:39:02;;;;;;;21.75;18.20;;;32.40;99.90;;;;;;5035457;28;20100;-69
2022/05/24 05:41:31;;;;;;;18.48;13.45;;;32.40;99.90;;;;;;5034549;28;20460;-69
2022/05/24 05:44:00;;;;;;;17.52;12.63;;;32.30;99.90;;;;;;5035401;28;20013;-67
2022/05/24 05:46:27;;;;;;;14.85;12.27;;;32.20;99.90;;;;;;5034900;28;20490;-68
2022/05/24 05:48:54;;;;;;;15.30;11.80;;;32.20;99.90;;;;;;5033541;28;20087;-68
2022/05/24 05:51:20;;;;;;;17.85;13.93;;;32.20;99.90;;;;;;5033370;28;20032;-67
2022/05/24 05:53:47;;;;;;;32.85;20.50;;;32.20;99.90;;;;;;5030499;28;20037;-68
2022/05/24 05:56:18;;;;;;;21.83;15.38;;;32.20;99.90;;;;;;5033758;28;20017;-66
2022/05/24 05:58:45;;;;;;;18.38;12.93;;;32.40;99.90;;;;;;5034537;28;20076;-68
2022/05/24 06:01:21;;;;;;;20.83;17.90;;;32.50;99.90;;;;;;5032523;28;20168;-67
2022/05/24 06:03:49;;;;;;;16.23;13.68;;;32.80;99.60;;;;;;5032093;28;20025;-68
2022/05/24 06:06:22;;;;;;;20.30;11.23;;;32.90;99.50;;;;;;5032225;28;20064;-66
2022/05/24 06:08:50;;;;;;;15.73;10.20;;;33.00;99.90;;;;;;5033742;28;20026;-68
2022/05/24 06:11:17;;;;;;;12.43;10.20;;;33.10;99.90;;;;;;5029238;28;20629;-67
2022/05/24 06:13:44;;;;;;;14.05;10.90;;;33.20;99.60;;;;;;5032242;28;20474;-68
2022/05/24 06:16:11;;;;;;;13.60;11.45;;;33.30;96.70;;;;;;5033116;28;20037;-66
2022/05/24 06:18:38;;;;;;;13.25;10.93;;;33.40;98.00;;;;;;5033530;28;20082;-65
2022/05/24 06:21:05;;;;;;;19.08;11.90;;;33.40;97.10;;;;;;5034186;28;20028;-68
2022/05/24 06:23:31;;;;;;;14.70;11.15;;;33.40;97.80;;;;;;5034317;28;20028;-68
2022/05/24 06:25:58;;;;;;;23.30;11.13;;;33.30;96.30;;;;;;5034145;28;20041;-67
2022/05/24 06:28:26;;;;;;;17.42;12.30;;;33.20;97.60;;;;;;5034259;28;20030;-69
2022/05/24 06:30:52;;;;;;;12.63;11.32;;;33.30;97.00;;;;;;5025605;28;20033;-66
2022/05/24 06:33:19;;;;;;;15.27;11.35;;;33.20;95.00;;;;;;5014358;28;20096;-65
2022/05/24 06:35:46;;;;;;;16.05;11.65;;;33.10;96.20;;;;;;5028838;28;20029;-68
2022/05/24 06:38:16;;;;;;;14.70;11.88;;;33.20;96.80;;;;;;5032877;28;20111;-67
2022/05/24 06:40:43;;;;;;;13.48;12.07;;;33.40;95.50;;;;;;5030055;28;20029;-68
2022/05/24 06:43:14;;;;;;;14.00;11.10;;;33.60;94.20;;;;;;5034656;28;20026;-68
2022/05/24 06:45:41;;;;;;;21.65;16.58;;;33.80;94.40;;;;;;5038985;28;20029;-66
2022/05/24 06:48:10;;;;;;;21.60;17.10;;;33.90;94.60;;;;;;5032451;28;20026;-66
2022/05/24 06:50:38;;;;;;;20.05;15.32;;;34.10;94.00;;;;;;5037309;28;20029;-66
2022/05/24 06:53:06;;;;;;;22.55;16.50;;;34.10;93.90;;;;;;5041637;28;20148;-68
2022/05/24 06:55:33;;;;;;;71.20;57.60;;;34.20;94.10;;;;;;5038783;28;20127;-68
2022/05/24 06:57:59;;;;;;;29.58;23.13;;;34.30;93.20;;;;;;5041604;28;20033;-68
2022/05/24 07:03:15;;;;;;;33.15;19.60;;;34.30;93.90;;;;;;5034340;28;20029;-69
2022/05/24 07:05:43;;;;;;;26.75;19.23;;;34.40;94.00;;;;;;5053434;28;20033;-69
2022/05/24 07:08:10;;;;;;;28.40;21.70;;;34.40;94.20;;;;;;5047946;28;20025;-67
2022/05/24 07:10:39;;;;;;;33.33;21.15;;;34.30;94.20;;;;;;5032492;28;20056;-68
2022/05/24 07:13:09;;;;;;;35.10;21.35;;;34.30;93.80;;;;;;5033263;28;20101;-68
2022/05/24 07:15:37;;;;;;;29.42;18.42;;;34.30;94.30;;;;;;5030667;28;20026;-67
2022/05/24 07:18:04;;;;;;;33.63;24.20;;;34.30;93.20;;;;;;5033077;28;20559;-68
2022/05/24 07:20:33;;;;;;;22.25;16.40;;;34.30;93.30;;;;;;5031416;28;20030;-68
2022/05/24 07:23:11;;;;;;;27.05;17.73;;;34.40;93.20;;;;;;5037886;28;20036;-68
2022/05/24 07:25:41;;;;;;;27.23;16.90;;;34.50;92.70;;;;;;5043198;28;20067;-68
2022/05/24 07:28:09;;;;;;;20.67;16.90;;;34.40;92.30;;;;;;5036418;28;20033;-68
2022/05/24 07:30:36;;;;;;;20.98;16.10;;;34.30;92.50;;;;;;5041034;28;20029;-68
2022/05/24 07:33:03;;;;;;;23.17;16.10;;;34.20;92.40;;;;;;5040566;28;20535;-66
2022/05/24 07:35:30;;;;;;;22.02;14.60;;;34.00;92.50;;;;;;5042014;28;20042;-69
2022/05/24 07:37:56;;;;;;;28.27;15.85;;;34.00;93.00;;;;;;5039389;28;20509;-67
2022/05/24 07:46:00;;;;;;;31.25;17.50;;;33.70;94.80;;;;;;5033146;28;20032;-68
2022/05/24 07:48:27;;;;;;;43.80;21.83;;;33.60;94.20;;;;;;5033476;28;20075;-65
2022/05/24 07:50:54;;;;;;;34.15;23.25;;;33.60;94.50;;;;;;5032579;28;20112;-65
2022/05/24 07:53:20;;;;;;;24.20;19.17;;;33.50;94.60;;;;;;5032028;28;20083;-65
2022/05/24 07:55:47;;;;;;;28.13;19.73;;;33.40;93.20;;;;;;5032546;28;20094;-67
2022/05/24 07:58:15;;;;;;;30.02;19.67;;;33.30;93.40;;;;;;5032814;28;20401;-65
2022/05/24 08:00:42;;;;;;;29.33;20.60;;;33.20;93.30;;;;;;5040562;28;20031;-66
2022/05/24 08:03:08;;;;;;;25.30;18.92;;;33.10;92.60;;;;;;5042833;28;20052;-66
2022/05/24 08:05:36;;;;;;;28.85;20.23;;;33.10;93.10;;;;;;5035699;28;20108;-62
2022/05/24 08:08:04;;;;;;;22.85;16.83;;;33.00;93.00;;;;;;5035531;28;20028;-62
2022/05/24 08:10:31;;;;;;;31.17;23.63;;;33.00;93.10;;;;;;5029451;28;20100;-62
2022/05/24 08:12:59;;;;;;;19.33;14.02;;;32.90;92.20;;;;;;5038972;28;20482;-63
2022/05/24 08:15:26;;;;;;;31.65;20.08;;;32.80;92.80;;;;;;5043435;28;20100;-61
2022/05/24 08:17:53;;;;;;;19.30;15.30;;;32.60;94.60;;;;;;5047025;28;20245;-59
2022/05/24 08:20:20;;;;;;;19.35;15.10;;;32.50;95.60;;;;;;5044516;28;20091;-60
2022/05/24 08:22:47;;;;;;;24.30;18.80;;;32.30;97.20;;;;;;5047660;28;20040;-59
2022/05/24 08:25:14;;;;;;;18.38;14.65;;;32.20;98.40;;;;;;5041724;28;20029;-61
2022/05/24 08:27:42;;;;;;;16.92;14.43;;;32.20;98.20;;;;;;5043519;28;20028;-62
2022/05/24 08:30:10;;;;;;;22.20;13.65;;;32.20;97.90;;;;;;5041339;28;20021;-61
2022/05/24 08:32:37;;;;;;;28.95;21.00;;;32.30;99.40;;;;;;5036397;28;20475;-62
2022/05/24 08:35:06;;;;;;;27.70;20.02;;;32.40;99.10;;;;;;5036542;28;20032;-62
2022/05/24 08:37:33;;;;;;;47.30;29.98;;;32.40;99.30;;;;;;5035754;28;20036;-63
2022/05/24 08:39:59;;;;;;;31.92;24.73;;;32.30;98.70;;;;;;5036028;28;20505;-64
2022/05/24 08:42:48;;;;;;;26.60;19.25;;;32.30;99.40;;;;;;5036797;28;20037;-62
2022/05/24 08:48:23;;;;;;;50.80;39.13;;;32.40;99.90;;;;;;4994316;28;20455;-64
2022/05/24 08:50:56;;;;;;;55.95;38.10;;;32.30;98.40;;;;;;4994391;28;20045;-62
2022/05/24 08:53:45;;;;;;;29.40;20.35;;;32.40;98.20;;;;;;4995493;28;20034;-63
2022/05/24 08:56:34;;;;;;;44.88;26.48;;;32.40;97.60;;;;;;4978471;28;20042;-63
2022/05/24 08:59:15;;;;;;;48.10;30.48;;;32.50;98.50;;;;;;4994232;28;20038;-64
2022/05/24 09:01:44;;;;;;;47.80;28.00;;;32.40;98.20;;;;;;4995064;28;20089;-63
2022/05/24 09:04:12;;;;;;;51.05;31.63;;;32.30;98.10;;;;;;4994904;28;20530;-63
2022/05/24 09:06:46;;;;;;;40.20;23.90;;;32.30;98.50;;;;;;4995655;28;20058;-62
2022/05/24 09:09:44;;;;;;;37.50;23.38;;;32.30;99.10;;;;;;4995574;28;20041;-63
2022/05/24 09:12:26;;;;;;;33.17;21.98;;;32.40;99.50;;;;;;4994030;28;20395;-62
2022/05/24 09:15:07;;;;;;;34.00;22.20;;;32.40;99.90;;;;;;4995066;28;20506;-63
2022/05/24 09:17:52;;;;;;;38.37;25.13;;;32.40;99.30;;;;;;4994416;28;20042;-62
2022/05/24 09:20:40;;;;;;;42.80;25.10;;;32.50;99.50;;;;;;4998663;28;20456;-62
2022/05/24 09:23:10;;;;;;;35.67;24.23;;;32.50;99.50;;;;;;5035081;28;20120;-62
2022/05/24 09:25:37;;;;;;;53.35;35.05;;;32.60;98.50;;;;;;5038272;28;20037;-61
2022/05/24 09:28:04;;;;;;;58.45;35.70;;;32.60;99.00;;;;;;5041682;28;20028;-63
2022/05/24 09:30:31;;;;;;;55.80;35.45;;;32.50;99.10;;;;;;5041644;28;20017;-63
2022/05/24 09:33:20;;;;;;;59.40;36.58;;;32.40;98.60;;;;;;5043604;28;20022;-62
2022/05/24 09:35:49;;;;;;;57.63;39.92;;;32.30;98.90;;;;;;5043922;28;20027;-63
2022/05/24 09:38:18;;;;;;;63.42;41.70;;;32.20;99.60;;;;;;5040337;28;20431;-63
2022/05/24 09:40:58;;;;;;;53.85;36.15;;;32.20;99.70;;;;;;5045062;28;20026;-62
2022/05/24 09:43:37;;;;;;;51.97;34.08;;;32.30;99.90;;;;;;5041846;28;20082;-64
2022/05/24 09:46:27;;;;;;;44.05;28.27;;;32.20;99.70;;;;;;5042200;28;20028;-63
2022/05/24 09:49:00;;;;;;;46.45;27.85;;;32.10;98.00;;;;;;5037819;28;20029;-62
2022/05/24 09:51:39;;;;;;;39.80;25.92;;;32.10;98.90;;;;;;5043266;28;20037;-63
2022/05/24 09:54:13;;;;;;;49.08;39.30;;;32.00;98.80;;;;;;5039982;28;20474;-61
2022/05/24 09:56:40;;;;;;;54.58;35.33;;;32.00;98.20;;;;;;5044512;28;20090;-62
2022/05/24 09:59:23;;;;;;;63.55;43.47;;;32.00;97.80;;;;;;5036146;28;20024;-63
2022/05/24 10:01:50;;;;;;;131.73;91.32;;;31.90;98.00;;;;;;5039704;28;20500;-62
2022/05/24 10:04:23;;;;;;;50.33;34.33;;;31.80;98.20;;;;;;5045014;28;20056;-63
2022/05/24 10:07:09;;;;;;;55.08;31.92;;;31.90;97.70;;;;;;5041176;28;20086;-62
2022/05/24 10:10:04;;;;;;;49.65;31.48;;;31.90;98.20;;;;;;5043127;28;20470;-62
2022/05/24 10:12:44;;;;;;;48.55;29.60;;;31.70;98.50;;;;;;5017276;28;20108;-64
2022/05/24 10:15:33;;;;;;;31.60;20.05;;;31.60;99.90;;;;;;5023060;28;20116;-62
2022/05/24 10:18:01;;;;;;;27.77;17.50;;;31.60;99.90;;;;;;5023368;28;20114;-64
2022/05/24 10:20:52;;;;;;;29.20;17.50;;;31.50;99.90;;;;;;5020748;28;20029;-62
2022/05/24 10:23:35;;;;;;;64.20;48.47;;;31.60;99.90;;;;;;5007081;28;20510;-62
2022/05/24 10:26:04;;;;;;;37.33;26.02;;;31.40;99.90;;;;;;5018173;28;20053;-60
2022/05/24 10:28:42;;;;;;;47.80;30.80;;;31.30;99.90;;;;;;5022005;28;20021;-60
2022/05/24 10:31:10;;;;;;;31.52;19.67;;;31.20;99.90;;;;;;5012410;28;20387;-60
2022/05/24 10:40:21;;;;;;;42.15;22.70;;;31.20;99.90;;;;;;5001216;28;20080;-62
2022/05/24 10:43:08;;;;;;;32.47;16.50;;;31.10;99.90;;;;;;4954243;29;20043;-62
2022/05/24 10:45:49;;;;;;;28.80;16.08;;;31.00;99.90;;;;;;4953916;28;20127;-61
2022/05/24 10:48:43;;;;;;;27.92;17.52;;;31.00;99.90;;;;;;4953541;29;20090;-61
2022/05/24 10:51:14;;;;;;;43.45;21.45;;;30.70;99.90;;;;;;4914902;29;20029;-61
2022/05/24 10:54:00;;;;;;;50.95;26.55;;;30.40;99.90;;;;;;4916699;29;20557;-61
2022/05/24 10:56:49;;;;;;;63.50;37.50;;;30.30;99.90;;;;;;4908024;29;20036;-61
2022/05/24 10:59:27;;;;;;;90.57;57.40;;;30.10;99.90;;;;;;4926747;29;20072;-61
2022/05/24 11:01:59;;;;;;;114.78;85.15;;;30.10;99.90;;;;;;4916785;29;20032;-61
2022/05/24 11:04:40;;;;;;;144.45;110.65;;;30.00;99.90;;;;;;4916811;29;20028;-61
2022/05/24 11:07:11;;;;;;;39.90;27.67;;;30.00;99.90;;;;;;4915933;29;20055;-61
2022/05/24 11:09:44;;;;;;;34.33;19.25;;;30.00;99.90;;;;;;4901737;29;20035;-59
2022/05/24 11:12:19;;;;;;;29.15;19.42;;;30.00;99.90;;;;;;4906246;29;20393;-61
2022/05/24 11:15:08;;;;;;;30.60;18.10;;;29.90;99.90;;;;;;4901452;29;20048;-61
2022/05/24 11:17:35;;;;;;;24.05;15.93;;;29.90;99.90;;;;;;4898323;29;20305;-62
2022/05/24 11:20:04;;;;;;;42.75;24.75;;;29.70;99.90;;;;;;4924738;29;20046;-62
2022/05/24 11:22:53;;;;;;;59.65;27.77;;;29.60;99.90;;;;;;4934031;29;20485;-63
2022/05/24 11:25:27;;;;;;;31.27;20.42;;;29.50;99.90;;;;;;4933818;29;20055;-62
2022/05/24 11:28:25;;;;;;;28.30;18.45;;;29.50;99.90;;;;;;4913765;29;20158;-62
2022/05/24 11:30:54;;;;;;;24.15;15.55;;;29.40;99.90;;;;;;4926865;29;20140;-61
2022/05/24 11:33:42;;;;;;;18.13;11.30;;;29.30;99.90;;;;;;4933751;29;20043;-62
2022/05/24 11:36:27;;;;;;;16.33;10.40;;;29.10;99.90;;;;;;4932834;29;20107;-62
2022/05/24 11:38:54;;;;;;;97.38;75.88;;;28.90;99.90;;;;;;4933682;29;20040;-62
2022/05/24 11:41:31;;;;;;;81.78;58.17;;;28.80;99.90;;;;;;4963050;28;20085;-63
2022/05/24 11:44:03;;;;;;;51.67;34.55;;;28.90;99.90;;;;;;4980337;28;20049;-62
2022/05/24 11:46:34;;;;;;;139.73;105.60;;;28.90;99.90;;;;;;4978225;28;20041;-65
2022/05/24 11:49:05;;;;;;;57.67;42.50;;;28.70;99.90;;;;;;4985497;28;20495;-62
2022/05/24 11:51:54;;;;;;;91.18;66.38;;;28.50;99.90;;;;;;4983208;28;20042;-63
2022/05/24 11:54:22;;;;;;;25.33;15.60;;;28.20;99.90;;;;;;4985092;28;20023;-62
2022/05/24 11:57:09;;;;;;;24.60;15.02;;;27.90;99.90;;;;;;4981935;28;20379;-62
2022/05/24 11:59:47;;;;;;;29.42;16.15;;;27.90;99.90;;;;;;4987965;28;20394;-63
2022/05/24 12:02:34;;;;;;;22.63;13.75;;;28.00;99.90;;;;;;4982474;28;20030;-62
2022/05/24 12:07:55;;;;;;;19.15;14.02;;;28.00;99.90;;;;;;4981599;28;20055;-62
2022/05/24 12:10:22;;;;;;;23.23;14.80;;;27.90;99.90;;;;;;4986787;28;20710;-60
2022/05/24 12:12:54;;;;;;;18.90;12.90;;;27.90;99.90;;;;;;4982214;28;20479;-62
2022/05/24 12:15:44;;;;;;;18.55;12.15;;;27.90;99.90;;;;;;4978224;28;20039;-58
2022/05/24 12:18:13;;;;;;;19.10;12.90;;;28.00;99.90;;;;;;4983492;28;20495;-61
2022/05/24 12:20:39;;;;;;;17.88;10.90;;;28.00;99.90;;;;;;5016196;28;20049;-61
2022/05/24 12:23:19;;;;;;;12.32;8.68;;;27.90;99.90;;;;;;5038042;28;20187;-61
2022/05/24 12:26:12;;;;;;;16.42;8.13;;;27.70;99.90;;;;;;5040333;28;20386;-61
2022/05/24 12:28:39;;;;;;;13.93;7.90;;;27.80;99.90;;;;;;5046630;28;20534;-62
2022/05/24 12:31:14;;;;;;;18.33;8.18;;;27.80;99.90;;;;;;5042293;28;20018;-62
2022/05/24 12:33:53;;;;;;;11.50;6.55;;;27.90;99.90;;;;;;5040739;28;20025;-61
2022/05/24 12:36:23;;;;;;;9.73;6.65;;;27.70;99.90;;;;;;5043398;28;20036;-62
2022/05/24 12:38:56;;;;;;;9.75;5.25;;;27.50;99.90;;;;;;5042673;28;20374;-62
2022/05/24 12:41:32;;;;;;;16.20;7.00;;;27.30;99.90;;;;;;5042268;28;20458;-62
2022/05/24 12:44:22;;;;;;;10.45;4.40;;;27.20;99.90;;;;;;5045907;28;20254;-62
2022/05/24 12:47:09;;;;;;;6.68;3.85;;;27.10;99.90;;;;;;5004081;28;20078;-62
2022/05/24 12:49:58;;;;;;;15.00;4.13;;;27.20;99.90;;;;;;5005129;28;20038;-62
2022/05/24 12:52:30;;;;;;;16.58;4.32;;;27.20;99.90;;;;;;5000337;28;20438;-62
2022/05/24 12:54:57;;;;;;;;;;;27.20;99.90;;;;;;5005147;28;20086;-61
2022/05/24 12:57:38;;;;;;;10.00;3.30;;;27.20;99.90;;;;;;5003649;28;20393;-62
2022/05/24 13:00:09;;;;;;;4.18;2.70;;;27.10;99.90;;;;;;5002081;28;20034;-62
2022/05/24 13:02:36;;;;;;;5.60;2.90;;;27.00;99.90;;;;;;5003319;28;20030;-62
2022/05/24 13:05:10;;;;;;;7.32;3.45;;;27.00;99.90;;;;;;5004864;28;20026;-62
2022/05/24 13:07:45;;;;;;;4.55;3.22;;;26.90;99.90;;;;;;5004944;28;20530;-61
2022/05/24 13:10:31;;;;;;;9.43;3.72;;;26.90;99.90;;;;;;5004107;28;20018;-62
2022/05/24 13:13:03;;;;;;;9.82;4.05;;;27.00;99.90;;;;;;5005055;28;20026;-62
2022/05/24 13:15:35;;;;;;;6.97;2.88;;;27.00;99.90;;;;;;5003864;28;20483;-62
2022/05/24 13:18:07;;;;;;;8.73;3.75;;;27.10;99.90;;;;;;5002786;28;20506;-61
2022/05/24 13:20:38;;;;;;;14.93;4.03;;;27.10;99.90;;;;;;5002430;28;20034;-62
2022/05/24 13:23:19;;;;;;;12.75;5.22;;;27.10;99.90;;;;;;5004323;28;20429;-62
2022/05/24 13:26:06;;;;;;;14.45;5.55;;;26.90;99.90;;;;;;5004545;28;20034;-62
2022/05/24 13:28:45;;;;;;;10.20;5.50;;;26.80;99.90;;;;;;4962978;28;20065;-62